createdAt,value
2023-03-26T00:01:19.227Z,8.36
2023-03-26T00:03:47.060Z,8.34
2023-03-26T00:06:15.841Z,8.32
2023-03-26T00:08:44.929Z,8.31
2023-03-26T00:11:13.247Z,8.30
2023-03-26T00:13:41.457Z,8.29
2023-03-26T00:16:08.219Z,8.28
2023-03-26T00:18:34.889Z,8.25
2023-03-26T00:21:03.968Z,8.26
2023-03-26T00:23:32.323Z,8.21
2023-03-26T00:25:58.934Z,8.18
2023-03-26T00:28:26.311Z,8.17
2023-03-26T00:31:07.478Z,8.18
2023-03-26T00:33:38.280Z,8.15
2023-03-26T00:36:14.633Z,8.18
2023-03-26T00:38:42.117Z,8.18
2023-03-26T00:41:17.334Z,8.16
2023-03-26T00:43:46.664Z,8.15
2023-03-26T00:46:13.468Z,8.13
2023-03-26T00:48:45.440Z,8.12
2023-03-26T00:51:15.521Z,8.15
2023-03-26T00:53:43.996Z,8.15
2023-03-26T00:56:10.754Z,8.15
2023-03-26T00:58:37.604Z,8.12
2023-03-26T01:01:10.460Z,8.11
2023-03-26T01:03:38.658Z,8.11
2023-03-26T01:06:08.023Z,8.12
2023-03-26T01:08:50.300Z,8.15
2023-03-26T01:11:31.960Z,8.14
2023-03-26T01:14:04.717Z,8.15
2023-03-26T01:16:39.067Z,8.14
2023-03-26T01:19:13.001Z,8.16
2023-03-26T01:21:39.721Z,8.16
2023-03-26T01:24:08.364Z,8.17
2023-03-26T01:26:59.793Z,8.16
2023-03-26T01:29:29.132Z,8.14
2023-03-26T01:32:12.012Z,8.15
2023-03-26T01:34:49.636Z,8.15
2023-03-26T01:37:33.999Z,8.15
2023-03-26T01:40:23.436Z,8.16
2023-03-26T01:43:11.309Z,8.15
2023-03-26T01:45:41.319Z,8.15
2023-03-26T01:48:07.938Z,8.13
2023-03-26T01:50:34.434Z,8.10
2023-03-26T01:53:01.173Z,8.09
2023-03-26T01:55:49.478Z,8.06
2023-03-26T01:58:21.061Z,8.00
2023-03-26T02:01:02.115Z,7.96
2023-03-26T02:03:38.938Z,7.87
2023-03-26T02:06:18.944Z,7.85
2023-03-26T02:08:52.824Z,7.81
2023-03-26T02:11:20.095Z,7.80
2023-03-26T02:13:46.853Z,7.78
2023-03-26T02:16:16.533Z,7.78
2023-03-26T02:18:45.044Z,7.76
2023-03-26T02:21:21.320Z,7.72
2023-03-26T02:23:50.760Z,7.73
2023-03-26T02:26:19.926Z,7.74
2023-03-26T02:28:46.389Z,7.76
2023-03-26T02:31:13.846Z,7.75
2023-03-26T02:33:40.513Z,7.76
2023-03-26T02:36:08.589Z,7.75
2023-03-26T02:38:35.621Z,7.75
2023-03-26T02:41:02.822Z,7.67
2023-03-26T02:43:29.609Z,7.62
2023-03-26T02:45:56.749Z,7.57
2023-03-26T02:48:23.713Z,7.53
2023-03-26T02:50:54.240Z,7.47
2023-03-26T02:53:30.793Z,7.44
2023-03-26T02:55:58.574Z,7.39
2023-03-26T02:58:26.416Z,7.41
2023-03-26T03:00:56.234Z,7.39
2023-03-26T03:03:27.119Z,7.35
2023-03-26T03:05:55.066Z,7.33
2023-03-26T03:08:26.191Z,7.27
2023-03-26T03:11:13.283Z,7.24
2023-03-26T03:13:41.791Z,7.26
2023-03-26T03:16:09.105Z,7.26
2023-03-26T03:18:36.413Z,7.27
2023-03-26T03:21:03.951Z,7.28
2023-03-26T03:23:30.434Z,7.29
2023-03-26T03:25:57.667Z,7.28
2023-03-26T03:28:25.348Z,7.27
2023-03-26T03:30:57.490Z,7.23
2023-03-26T03:33:24.456Z,7.17
2023-03-26T03:35:51.110Z,7.17
2023-03-26T03:38:19.191Z,7.19
2023-03-26T03:40:45.783Z,7.17
2023-03-26T03:43:12.212Z,7.15
2023-03-26T03:45:38.694Z,7.07
2023-03-26T03:48:05.420Z,7.11
2023-03-26T03:50:34.338Z,7.16
2023-03-26T03:53:02.876Z,7.18
2023-03-26T03:55:30.031Z,7.13
2023-03-26T03:57:58.256Z,7.15
2023-03-26T04:00:24.701Z,7.18
2023-03-26T04:02:54.317Z,7.19
2023-03-26T04:05:21.262Z,7.22
2023-03-26T04:07:47.777Z,7.20
2023-03-26T04:10:15.303Z,7.24
2023-03-26T04:12:41.800Z,7.26
2023-03-26T04:15:08.361Z,7.16
2023-03-26T04:17:42.758Z,7.12
2023-03-26T04:20:15.830Z,7.12
2023-03-26T04:22:43.708Z,7.15
2023-03-26T04:25:11.298Z,7.19
2023-03-26T04:27:38.812Z,7.17
2023-03-26T04:30:07.202Z,7.16
2023-03-26T04:32:34.554Z,7.17
2023-03-26T04:35:04.009Z,7.21
2023-03-26T04:37:39.712Z,7.26
2023-03-26T04:40:10.317Z,7.27
2023-03-26T04:42:41.617Z,7.24
2023-03-26T04:45:09.288Z,7.26
2023-03-26T04:47:37.002Z,7.27
2023-03-26T04:50:09.307Z,7.29
2023-03-26T04:52:36.617Z,7.30
2023-03-26T04:55:03.635Z,7.33
2023-03-26T04:57:46.230Z,7.33
2023-03-26T05:00:16.694Z,7.39
2023-03-26T05:02:43.641Z,7.41
2023-03-26T05:05:10.720Z,7.40
2023-03-26T05:07:37.580Z,7.41
2023-03-26T05:10:05.489Z,7.41
2023-03-26T05:12:31.898Z,7.42
2023-03-26T05:14:58.334Z,7.44
2023-03-26T05:17:25.877Z,7.44
2023-03-26T05:19:52.477Z,7.44
2023-03-26T05:22:19.310Z,7.43
2023-03-26T05:24:46.161Z,7.41
2023-03-26T05:27:22.745Z,7.41
2023-03-26T05:29:49.292Z,7.37
2023-03-26T05:32:15.903Z,7.39
2023-03-26T05:34:42.390Z,7.40
2023-03-26T05:37:09.307Z,7.43
2023-03-26T05:39:35.999Z,7.43
2023-03-26T05:42:02.675Z,7.44
2023-03-26T05:44:29.264Z,7.47
2023-03-26T05:46:55.802Z,7.48
2023-03-26T05:49:22.272Z,7.48
2023-03-26T05:51:48.688Z,7.50
2023-03-26T05:54:15.295Z,7.51
2023-03-26T05:56:41.741Z,7.52
2023-03-26T05:59:08.854Z,7.53
2023-03-26T06:01:35.307Z,7.53
2023-03-26T06:04:02.029Z,7.54
2023-03-26T06:06:28.511Z,7.55
2023-03-26T06:09:01.139Z,7.57
2023-03-26T06:11:29.947Z,7.56
2023-03-26T06:13:56.448Z,7.57
2023-03-26T06:16:27.831Z,7.57
2023-03-26T06:18:56.623Z,7.60
2023-03-26T06:21:27.634Z,7.59
2023-03-26T06:23:54.969Z,7.61
2023-03-26T06:26:21.790Z,7.63
2023-03-26T06:28:48.709Z,7.64
2023-03-26T06:31:17.219Z,7.65
2023-03-26T06:33:43.706Z,7.64
2023-03-26T06:36:10.553Z,7.63
2023-03-26T06:38:37.049Z,7.63
2023-03-26T06:41:05.403Z,7.64
2023-03-26T06:43:33.741Z,7.63
2023-03-26T06:46:01.642Z,7.66
2023-03-26T06:48:28.437Z,7.69
2023-03-26T06:50:55.436Z,7.67
2023-03-26T06:53:22.072Z,7.65
2023-03-26T06:55:48.590Z,7.67
2023-03-26T06:58:16.671Z,7.65
2023-03-26T07:00:43.319Z,7.64
2023-03-26T07:03:11.241Z,7.63
2023-03-26T07:05:38.454Z,7.64
2023-03-26T07:08:04.958Z,7.65
2023-03-26T07:10:31.837Z,7.65
2023-03-26T07:12:58.325Z,7.70
2023-03-26T07:15:24.797Z,7.71
2023-03-26T07:17:51.448Z,7.74
2023-03-26T07:20:17.933Z,7.73
2023-03-26T07:22:44.647Z,7.75
2023-03-26T07:25:14.210Z,7.76
2023-03-26T07:27:52.241Z,7.77
2023-03-26T07:30:34.314Z,7.80
2023-03-26T07:33:06.700Z,7.83
2023-03-26T07:35:50.713Z,7.85
2023-03-26T07:38:23.216Z,7.85
2023-03-26T07:40:55.997Z,7.89
2023-03-26T07:43:51.077Z,7.91
2023-03-26T07:46:23.926Z,7.92
2023-03-26T07:48:51.921Z,7.94
2023-03-26T07:51:19.182Z,7.95
2023-03-26T07:53:46.058Z,7.97
2023-03-26T07:56:37.731Z,7.99
2023-03-26T07:59:18.662Z,8.00
2023-03-26T08:02:05.481Z,8.03
2023-03-26T08:04:41.162Z,8.05
2023-03-26T08:07:10.895Z,8.04
2023-03-26T08:09:49.417Z,8.02
2023-03-26T08:12:27.568Z,8.02
2023-03-26T08:14:56.893Z,8.03
2023-03-26T08:17:39.266Z,8.04
2023-03-26T08:20:31.094Z,8.01
2023-03-26T08:23:09.462Z,8.01
2023-03-26T08:26:12.846Z,8.02
2023-03-26T08:29:04.147Z,8.04
2023-03-26T08:31:36.129Z,8.05
2023-03-26T08:34:02.769Z,8.04
2023-03-26T08:36:29.572Z,8.06
2023-03-26T08:38:57.495Z,8.07
2023-03-26T08:41:59.363Z,8.09
2023-03-26T08:45:04.673Z,8.09
2023-03-26T08:48:09.147Z,8.10
2023-03-26T08:50:43.567Z,8.11
2023-03-26T08:53:43.755Z,8.08
2023-03-26T08:56:28.896Z,8.08
2023-03-26T08:59:32.560Z,8.06
2023-03-26T09:02:20.689Z,8.09
2023-03-26T09:05:15.223Z,8.08
2023-03-26T09:08:11.014Z,8.06
2023-03-26T09:10:52.035Z,8.05
2023-03-26T09:13:56.068Z,8.06
2023-03-26T09:17:07.284Z,8.04
2023-03-26T09:20:04.578Z,8.03
2023-03-26T09:22:52.896Z,8.02
2023-03-26T09:25:42.199Z,8.05
2023-03-26T09:28:33.773Z,8.05
2023-03-26T09:31:06.324Z,8.05
2023-03-26T09:33:56.298Z,8.08
2023-03-26T09:36:43.390Z,8.08
2023-03-26T09:39:16.893Z,8.08
2023-03-26T09:42:05.007Z,8.02
2023-03-26T09:44:51.073Z,7.95
2023-03-26T09:47:23.507Z,7.83
2023-03-26T09:50:08.847Z,7.85
2023-03-26T09:52:41.324Z,7.87
2023-03-26T09:55:33.657Z,7.81
2023-03-26T09:58:06.188Z,7.76
2023-03-26T10:00:53.946Z,7.79
2023-03-26T10:03:48.747Z,7.80
2023-03-26T10:06:27.998Z,7.78
2023-03-26T10:09:01.469Z,7.79
2023-03-26T10:11:47.269Z,7.75
2023-03-26T10:14:28.945Z,7.69
2023-03-26T10:17:20.304Z,7.77
2023-03-26T10:20:00.774Z,7.81
2023-03-26T10:22:43.700Z,7.80
2023-03-26T10:25:33.659Z,7.83
2023-03-26T10:28:03.065Z,7.82
2023-03-26T10:30:46.888Z,7.89
2023-03-26T10:33:30.716Z,7.84
2023-03-26T10:36:31.446Z,7.87
2023-03-26T10:39:36.693Z,7.85
2023-03-26T10:42:23.989Z,7.79
2023-03-26T10:45:29.913Z,7.80
2023-03-26T10:48:24.386Z,7.83
2023-03-26T10:51:07.381Z,7.87
2023-03-26T10:54:19.055Z,7.90
2023-03-26T10:56:47.886Z,7.88
2023-03-26T10:59:16.328Z,7.93
2023-03-26T11:02:00.992Z,7.91
2023-03-26T11:05:02.073Z,7.91
2023-03-26T11:07:43.741Z,7.88
2023-03-26T11:10:16.851Z,7.88
2023-03-26T11:13:35.299Z,7.90
2023-03-26T11:16:06.222Z,7.96
2023-03-26T11:19:13.183Z,7.90
2023-03-26T11:21:53.749Z,7.92
2023-03-26T11:24:38.512Z,7.98
2023-03-26T11:27:18.956Z,7.95
2023-03-26T11:29:59.162Z,7.91
2023-03-26T11:32:42.173Z,7.88
2023-03-26T11:35:39.746Z,7.86
2023-03-26T11:38:37.222Z,7.87
2023-03-26T11:41:11.170Z,7.86
2023-03-26T11:43:37.617Z,7.87
2023-03-26T11:46:13.206Z,7.87
2023-03-26T11:48:57.593Z,7.88
2023-03-26T11:51:34.354Z,7.82
2023-03-26T11:54:05.931Z,7.90
2023-03-26T11:56:37.636Z,7.89
2023-03-26T11:59:26.070Z,7.91
2023-03-26T12:01:58.058Z,7.87
2023-03-26T12:04:33.717Z,7.89
2023-03-26T12:07:15.837Z,7.92
2023-03-26T12:09:57.881Z,7.85
2023-03-26T12:12:47.207Z,7.86
2023-03-26T12:15:16.127Z,7.91
2023-03-26T12:17:43.213Z,7.86
2023-03-26T12:20:42.557Z,7.91
2023-03-26T12:23:42.449Z,7.93
2023-03-26T12:26:36.625Z,8.00
2023-03-26T12:29:15.297Z,8.10
2023-03-26T12:31:48.355Z,8.09
2023-03-26T12:34:18.315Z,7.98
2023-03-26T12:36:55.314Z,8.02
2023-03-26T12:40:08.661Z,8.05
2023-03-26T12:44:55.267Z,8.10
2023-03-26T12:45:32.178Z,8.15
2023-03-26T12:48:03.903Z,8.21
2023-03-26T12:50:44.387Z,8.34
2023-03-26T12:53:41.438Z,8.36
2023-03-26T12:56:07.822Z,8.47
2023-03-26T12:58:54.994Z,8.49
2023-03-26T13:01:43.525Z,8.44
2023-03-26T13:04:23.109Z,8.38
2023-03-26T13:07:01.598Z,8.38
2023-03-26T13:09:54.113Z,8.41
2023-03-26T13:12:41.008Z,8.32
2023-03-26T13:15:22.639Z,8.30
2023-03-26T13:18:16.597Z,8.26
2023-03-26T13:21:10.272Z,8.20
2023-03-26T13:23:59.885Z,8.23
2023-03-26T13:26:54.369Z,8.26
2023-03-26T13:29:28.569Z,8.29
2023-03-26T13:32:36.001Z,8.29
2023-03-26T13:35:02.452Z,8.31
2023-03-26T13:37:37.483Z,8.35
2023-03-26T13:40:22.289Z,8.42
2023-03-26T13:43:26.340Z,8.44
2023-03-26T13:46:17.344Z,8.48
2023-03-26T13:49:07.058Z,8.59
2023-03-26T13:51:37.285Z,8.59
2023-03-26T13:54:07.884Z,8.62
2023-03-26T13:56:43.269Z,8.73
2023-03-26T13:59:21.085Z,8.68
2023-03-26T14:01:54.427Z,8.72
2023-03-26T14:04:50.924Z,8.76
2023-03-26T14:07:44.324Z,8.86
2023-03-26T14:10:21.266Z,8.86
2023-03-26T14:13:07.345Z,8.83
2023-03-26T14:15:58.727Z,8.85
2023-03-26T14:18:44.468Z,8.87
2023-03-26T14:21:19.904Z,8.83
2023-03-26T14:24:04.884Z,8.86
2023-03-26T14:27:05.523Z,8.87
2023-03-26T14:29:56.759Z,8.96
2023-03-26T14:32:36.093Z,8.99
2023-03-26T14:35:28.292Z,8.97
2023-03-26T14:38:03.811Z,8.94
2023-03-26T14:40:33.284Z,9.01
2023-03-26T14:43:24.893Z,8.98
2023-03-26T14:46:16.330Z,8.93
2023-03-26T14:48:52.231Z,8.80
2023-03-26T14:51:23.278Z,8.81
2023-03-26T14:54:21.768Z,8.84
2023-03-26T14:57:03.515Z,8.76
2023-03-26T15:00:07.226Z,8.80
2023-03-26T15:03:11.831Z,8.81
2023-03-26T15:05:57.170Z,8.73
2023-03-26T15:08:36.299Z,8.78
2023-03-26T15:11:21.542Z,8.69
2023-03-26T15:13:59.586Z,8.66
2023-03-26T15:16:31.978Z,8.63
2023-03-26T15:19:27.254Z,8.62
2023-03-26T15:21:56.631Z,8.57
2023-03-26T15:24:46.306Z,8.54
2023-03-26T15:27:27.806Z,8.48
2023-03-26T15:30:22.362Z,8.47
2023-03-26T15:33:05.231Z,8.52
2023-03-26T15:35:50.013Z,8.52
2023-03-26T15:38:46.399Z,8.54
2023-03-26T15:41:19.249Z,8.52
2023-03-26T15:44:23.670Z,8.46
2023-03-26T15:46:58.221Z,8.36
2023-03-26T15:49:42.592Z,8.33
2023-03-26T15:52:22.044Z,8.34
2023-03-26T15:55:03.960Z,8.43
2023-03-26T15:57:56.985Z,8.35
2023-03-26T16:00:25.960Z,8.35
2023-03-26T16:03:12.106Z,8.32
2023-03-26T16:06:15.791Z,8.26
2023-03-26T16:08:54.217Z,8.27
2023-03-26T16:11:48.983Z,8.21
2023-03-26T16:14:46.803Z,8.19
2023-03-26T16:17:23.610Z,8.21
2023-03-26T16:19:52.002Z,8.15
2023-03-26T16:22:42.526Z,8.18
2023-03-26T16:25:27.963Z,8.16
2023-03-26T16:28:32.516Z,8.13
2023-03-26T16:31:23.653Z,8.14
2023-03-26T16:34:19.347Z,8.10
2023-03-26T16:36:49.893Z,8.15
2023-03-26T16:39:39.739Z,8.10
2023-03-26T16:42:15.615Z,8.09
2023-03-26T16:45:00.894Z,8.03
2023-03-26T16:47:47.648Z,7.97
2023-03-26T16:50:29.900Z,7.97
2023-03-26T16:53:41.622Z,7.93
2023-03-26T16:56:33.391Z,7.85
2023-03-26T16:59:09.326Z,7.84
2023-03-26T17:01:48.254Z,7.81
2023-03-26T17:04:26.221Z,7.78
2023-03-26T17:07:08.668Z,7.80
2023-03-26T17:10:00.564Z,7.79
2023-03-26T17:12:44.229Z,7.72
2023-03-26T17:15:22.109Z,7.70
2023-03-26T17:18:16.752Z,7.65
2023-03-26T17:21:08.322Z,7.61
2023-03-26T17:23:41.208Z,7.54
2023-03-26T17:26:21.879Z,7.60
2023-03-26T17:28:57.153Z,7.57
2023-03-26T17:31:40.207Z,7.51
2023-03-26T17:34:33.160Z,7.50
2023-03-26T17:37:04.672Z,7.48
2023-03-26T17:39:51.125Z,7.51
2023-03-26T17:42:26.794Z,7.48
2023-03-26T17:45:01.702Z,7.48
2023-03-26T17:48:05.378Z,7.50
2023-03-26T17:50:42.031Z,7.45
2023-03-26T17:53:19.758Z,7.46
2023-03-26T17:55:50.067Z,7.49
2023-03-26T17:58:21.004Z,7.49
2023-03-26T18:00:52.816Z,7.48
2023-03-26T18:03:49.426Z,7.46
2023-03-26T18:06:51.648Z,7.42
2023-03-26T18:09:48.106Z,7.38
2023-03-26T18:12:33.097Z,7.39
2023-03-26T18:15:11.796Z,7.35
2023-03-26T18:17:47.078Z,7.32
2023-03-26T18:20:26.339Z,7.35
2023-03-26T18:22:53.299Z,7.36
2023-03-26T18:25:28.625Z,7.35
2023-03-26T18:27:56.210Z,7.38
2023-03-26T18:30:24.507Z,7.32
2023-03-26T18:33:00.732Z,7.30
2023-03-26T18:35:38.722Z,7.25
2023-03-26T18:38:05.891Z,7.29
2023-03-26T18:40:40.280Z,7.26
2023-03-26T18:43:25.367Z,7.23
2023-03-26T18:45:59.182Z,7.23
2023-03-26T18:48:28.292Z,7.18
2023-03-26T18:51:00.300Z,7.11
2023-03-26T18:53:38.480Z,7.04
2023-03-26T18:56:19.457Z,6.99
2023-03-26T18:58:51.654Z,7.02
2023-03-26T19:01:25.835Z,6.99
2023-03-26T19:03:53.784Z,6.95
2023-03-26T19:06:21.022Z,6.93
2023-03-26T19:08:50.325Z,6.92
2023-03-26T19:11:17.707Z,6.86
2023-03-26T19:13:49.659Z,6.85
2023-03-26T19:16:24.435Z,6.80
2023-03-26T19:18:51.322Z,6.79
2023-03-26T19:21:20.201Z,6.75
2023-03-26T19:23:47.732Z,6.74
2023-03-26T19:26:15.301Z,6.73
2023-03-26T19:28:51.463Z,6.72
2023-03-26T19:31:36.336Z,6.67
2023-03-26T19:34:13.638Z,6.69
2023-03-26T19:37:02.021Z,6.66
2023-03-26T19:39:42.769Z,6.58
2023-03-26T19:42:16.242Z,6.57
2023-03-26T19:44:43.530Z,6.58
2023-03-26T19:47:35.396Z,6.60
2023-03-26T19:50:28.740Z,6.54
2023-03-26T19:53:32.396Z,6.53
2023-03-26T19:56:04.454Z,6.47
2023-03-26T19:58:32.157Z,6.47
2023-03-26T20:00:59.102Z,6.43
2023-03-26T20:03:29.257Z,6.41
2023-03-26T20:05:56.198Z,6.40
2023-03-26T20:08:27.016Z,6.39
2023-03-26T20:10:56.474Z,6.35
2023-03-26T20:13:23.188Z,6.36
2023-03-26T20:16:05.727Z,6.34
2023-03-26T20:18:33.843Z,6.30
2023-03-26T20:21:00.533Z,6.24
2023-03-26T20:23:28.829Z,6.22
2023-03-26T20:25:55.781Z,6.21
2023-03-26T20:28:24.281Z,6.16
2023-03-26T20:30:54.379Z,6.11
2023-03-26T20:33:27.733Z,6.08
2023-03-26T20:35:56.733Z,6.02
2023-03-26T20:38:36.695Z,6.01
2023-03-26T20:41:07.192Z,5.96
2023-03-26T20:43:33.664Z,5.91
2023-03-26T20:46:00.569Z,5.87
2023-03-26T20:48:27.123Z,5.85
2023-03-26T20:50:54.118Z,5.85
2023-03-26T20:53:20.714Z,5.78
2023-03-26T20:55:48.321Z,5.75
2023-03-26T20:58:31.530Z,5.77
2023-03-26T21:01:01.243Z,5.71
2023-03-26T21:03:27.961Z,5.69
2023-03-26T21:05:54.586Z,5.65
2023-03-26T21:08:22.941Z,5.62
2023-03-26T21:10:49.704Z,5.60
2023-03-26T21:13:22.210Z,5.57
2023-03-26T21:15:50.932Z,5.50
2023-03-26T21:18:17.722Z,5.50
2023-03-26T21:21:05.177Z,5.48
2023-03-26T21:23:46.283Z,5.42
2023-03-26T21:26:28.402Z,5.38
2023-03-26T21:28:55.015Z,5.37
2023-03-26T21:31:24.632Z,5.35
2023-03-26T21:33:51.898Z,5.32
2023-03-26T21:36:19.882Z,5.29
2023-03-26T21:38:46.882Z,5.23
2023-03-26T21:41:30.893Z,5.22
2023-03-26T21:43:59.729Z,5.17
2023-03-26T21:46:27.012Z,5.15
2023-03-26T21:48:53.743Z,5.14
2023-03-26T21:51:21.155Z,5.04
2023-03-26T21:53:48.902Z,4.98
2023-03-26T21:56:50.361Z,4.97
2023-03-26T21:59:32.121Z,4.95
2023-03-26T22:02:19.241Z,4.90
2023-03-26T22:05:04.082Z,4.83
2023-03-26T22:07:33.205Z,4.79
2023-03-26T22:09:59.676Z,4.72
2023-03-26T22:12:26.490Z,4.70
2023-03-26T22:14:53.325Z,4.61
2023-03-26T22:17:19.901Z,4.54
2023-03-26T22:19:46.355Z,4.49
2023-03-26T22:22:12.864Z,4.47
2023-03-26T22:24:39.339Z,4.45
2023-03-26T22:27:06.248Z,4.42
2023-03-26T22:29:33.539Z,4.36
2023-03-26T22:32:00.043Z,4.32
2023-03-26T22:34:26.548Z,4.28
2023-03-26T22:36:53.277Z,4.22
2023-03-26T22:39:19.773Z,4.27
2023-03-26T22:41:46.206Z,4.18
2023-03-26T22:44:19.791Z,4.16
2023-03-26T22:46:49.289Z,4.15
2023-03-26T22:49:16.458Z,4.12
2023-03-26T22:51:43.055Z,4.10
2023-03-26T22:54:09.730Z,4.08
2023-03-26T22:56:36.999Z,4.05
2023-03-26T22:59:03.763Z,4.02
2023-03-26T23:01:30.532Z,4.03
2023-03-26T23:03:57.887Z,3.97
2023-03-26T23:06:25.048Z,3.97
2023-03-26T23:08:51.570Z,3.93
2023-03-26T23:11:20.444Z,3.88
2023-03-26T23:13:47.903Z,3.84
2023-03-26T23:16:16.178Z,3.89
2023-03-26T23:18:42.917Z,3.77
2023-03-26T23:21:14.870Z,3.78
2023-03-26T23:23:41.401Z,3.70
2023-03-26T23:26:08.526Z,3.73
2023-03-26T23:28:35.630Z,3.67
2023-03-26T23:31:05.383Z,3.72
2023-03-26T23:33:37.769Z,3.67
2023-03-26T23:36:10.644Z,3.65
2023-03-26T23:38:43.788Z,3.64
2023-03-26T23:41:15.135Z,3.64
2023-03-26T23:43:54.450Z,3.59
2023-03-26T23:46:26.019Z,3.61
2023-03-26T23:48:52.921Z,3.66
2023-03-26T23:51:20.945Z,3.62
2023-03-26T23:53:49.052Z,3.60
2023-03-26T23:56:16.238Z,3.54
2023-03-26T23:58:42.999Z,3.51
